sensor_id;sensor_type;location;lat;lon;timestamp;temperature;humidity
2226;DHT22;1119;48.288;8.726;2024-03-02T00:01:37;5.80;99.90
2226;DHT22;1119;48.288;8.726;2024-03-02T00:04:05;5.80;99.90
2226;DHT22;1119;48.288;8.726;2024-03-02T00:06:33;5.70;99.90
2226;DHT22;1119;48.288;8.726;2024-03-02T00:09:02;5.70;99.90
2226;DHT22;1119;48.288;8.726;2024-03-02T00:11:30;5.70;99.90
2226;DHT22;1119;48.288;8.726;2024-03-02T00:13:59;5.70;99.90
2226;DHT22;1119;48.288;8.726;2024-03-02T00:16:30;5.70;99.90
2226;DHT22;1119;48.288;8.726;2024-03-02T00:19:01;5.80;99.90
2226;DHT22;1119;48.288;8.726;2024-03-02T00:21:30;5.70;99.90
2226;DHT22;1119;48.288;8.726;2024-03-02T00:23:58;5.70;99.90
2226;DHT22;1119;48.288;8.726;2024-03-02T00:26:27;5.80;99.90
2226;DHT22;1119;48.288;8.726;2024-03-02T00:28:55;5.70;99.90
2226;DHT22;1119;48.288;8.726;2024-03-02T00:31:23;5.80;99.90
2226;DHT22;1119;48.288;8.726;2024-03-02T00:33:51;5.70;99.90
2226;DHT22;1119;48.288;8.726;2024-03-02T00:36:24;5.70;99.90
2226;DHT22;1119;48.288;8.726;2024-03-02T00:38:53;5.80;99.90
2226;DHT22;1119;48.288;8.726;2024-03-02T00:41:22;5.80;99.90
2226;DHT22;1119;48.288;8.726;2024-03-02T00:43:57;5.80;99.90
2226;DHT22;1119;48.288;8.726;2024-03-02T00:46:26;5.90;99.90
2226;DHT22;1119;48.288;8.726;2024-03-02T00:48:56;5.90;99.90
2226;DHT22;1119;48.288;8.726;2024-03-02T00:51:26;5.90;99.90
2226;DHT22;1119;48.288;8.726;2024-03-02T00:53:57;5.90;99.90
2226;DHT22;1119;48.288;8.726;2024-03-02T00:56:25;5.90;99.90
2226;DHT22;1119;48.288;8.726;2024-03-02T00:58:54;5.90;99.90
2226;DHT22;1119;48.288;8.726;2024-03-02T01:01:22;5.90;99.90
2226;DHT22;1119;48.288;8.726;2024-03-02T01:03:49;5.90;99.90
2226;DHT22;1119;48.288;8.726;2024-03-02T01:06:17;6.00;99.90
2226;DHT22;1119;48.288;8.726;2024-03-02T01:08:45;5.90;99.90
2226;DHT22;1119;48.288;8.726;2024-03-02T01:11:16;5.90;99.90
2226;DHT22;1119;48.288;8.726;2024-03-02T01:13:43;5.90;99.90
2226;DHT22;1119;48.288;8.726;2024-03-02T01:16:12;5.90;99.90
2226;DHT22;1119;48.288;8.726;2024-03-02T01:18:39;5.90;99.90
2226;DHT22;1119;48.288;8.726;2024-03-02T01:21:06;5.80;99.90
2226;DHT22;1119;48.288;8.726;2024-03-02T01:23:34;5.80;99.90
2226;DHT22;1119;48.288;8.726;2024-03-02T01:26:01;5.80;99.90
2226;DHT22;1119;48.288;8.726;2024-03-02T01:28:28;5.70;99.90
2226;DHT22;1119;48.288;8.726;2024-03-02T01:30:56;5.80;99.90
2226;DHT22;1119;48.288;8.726;2024-03-02T01:33:24;5.80;99.90
2226;DHT22;1119;48.288;8.726;2024-03-02T01:35:52;5.80;99.90
2226;DHT22;1119;48.288;8.726;2024-03-02T01:38:19;5.80;99.90
2226;DHT22;1119;48.288;8.726;2024-03-02T01:40:46;5.80;99.90
2226;DHT22;1119;48.288;8.726;2024-03-02T01:43:13;5.80;99.90
2226;DHT22;1119;48.288;8.726;2024-03-02T01:45:41;5.80;99.90
2226;DHT22;1119;48.288;8.726;2024-03-02T01:48:08;5.80;99.90
2226;DHT22;1119;48.288;8.726;2024-03-02T01:50:37;5.70;99.90
2226;DHT22;1119;48.288;8.726;2024-03-02T01:53:04;5.70;99.90
2226;DHT22;1119;48.288;8.726;2024-03-02T01:55:32;5.70;99.90
2226;DHT22;1119;48.288;8.726;2024-03-02T01:58:00;5.70;99.90
2226;DHT22;1119;48.288;8.726;2024-03-02T02:00:28;5.70;99.90
2226;DHT22;1119;48.288;8.726;2024-03-02T02:02:55;5.70;99.90
2226;DHT22;1119;48.288;8.726;2024-03-02T02:05:23;5.70;99.90
2226;DHT22;1119;48.288;8.726;2024-03-02T02:07:52;5.70;99.90
2226;DHT22;1119;48.288;8.726;2024-03-02T02:10:19;5.70;99.90
2226;DHT22;1119;48.288;8.726;2024-03-02T02:12:46;5.70;99.90
2226;DHT22;1119;48.288;8.726;2024-03-02T02:15:24;5.70;99.90
2226;DHT22;1119;48.288;8.726;2024-03-02T02:17:52;5.80;99.90
2226;DHT22;1119;48.288;8.726;2024-03-02T02:20:19;5.80;99.90
2226;DHT22;1119;48.288;8.726;2024-03-02T02:22:56;5.80;99.90
2226;DHT22;1119;48.288;8.726;2024-03-02T02:25:24;5.80;99.90
2226;DHT22;1119;48.288;8.726;2024-03-02T02:27:52;5.70;99.90
2226;DHT22;1119;48.288;8.726;2024-03-02T02:30:20;5.70;99.90
2226;DHT22;1119;48.288;8.726;2024-03-02T02:32:49;5.60;99.90
2226;DHT22;1119;48.288;8.726;2024-03-02T02:35:16;5.60;99.90
2226;DHT22;1119;48.288;8.726;2024-03-02T02:37:44;5.60;99.90
2226;DHT22;1119;48.288;8.726;2024-03-02T02:40:14;5.70;99.90
2226;DHT22;1119;48.288;8.726;2024-03-02T02:42:42;5.70;99.90
2226;DHT22;1119;48.288;8.726;2024-03-02T02:45:09;5.60;99.90
2226;DHT22;1119;48.288;8.726;2024-03-02T02:47:36;5.70;99.90
2226;DHT22;1119;48.288;8.726;2024-03-02T02:50:06;5.60;99.90
2226;DHT22;1119;48.288;8.726;2024-03-02T02:52:34;5.60;99.90
2226;DHT22;1119;48.288;8.726;2024-03-02T02:55:05;5.70;99.90
2226;DHT22;1119;48.288;8.726;2024-03-02T02:57:35;5.60;99.90
2226;DHT22;1119;48.288;8.726;2024-03-02T03:00:06;5.60;99.90
2226;DHT22;1119;48.288;8.726;2024-03-02T03:02:40;5.60;99.90
2226;DHT22;1119;48.288;8.726;2024-03-02T03:05:08;5.60;99.90
2226;DHT22;1119;48.288;8.726;2024-03-02T03:07:36;5.60;99.90
2226;DHT22;1119;48.288;8.726;2024-03-02T03:10:06;5.60;99.90
2226;DHT22;1119;48.288;8.726;2024-03-02T03:12:36;5.60;99.90
2226;DHT22;1119;48.288;8.726;2024-03-02T03:15:04;5.60;99.90
2226;DHT22;1119;48.288;8.726;2024-03-02T03:17:32;5.60;99.90
2226;DHT22;1119;48.288;8.726;2024-03-02T03:20:00;5.60;99.90
2226;DHT22;1119;48.288;8.726;2024-03-02T03:22:30;5.60;99.90
2226;DHT22;1119;48.288;8.726;2024-03-02T03:24:57;5.60;99.90
2226;DHT22;1119;48.288;8.726;2024-03-02T03:27:25;5.60;99.90
2226;DHT22;1119;48.288;8.726;2024-03-02T03:29:54;5.60;99.90
2226;DHT22;1119;48.288;8.726;2024-03-02T03:32:21;5.60;99.90
2226;DHT22;1119;48.288;8.726;2024-03-02T03:34:49;5.60;99.90
2226;DHT22;1119;48.288;8.726;2024-03-02T03:37:16;5.60;99.90
2226;DHT22;1119;48.288;8.726;2024-03-02T03:39:44;5.60;99.90
2226;DHT22;1119;48.288;8.726;2024-03-02T03:42:11;5.60;99.90
2226;DHT22;1119;48.288;8.726;2024-03-02T03:44:38;5.60;99.90
2226;DHT22;1119;48.288;8.726;2024-03-02T03:47:08;5.60;99.90
2226;DHT22;1119;48.288;8.726;2024-03-02T03:49:36;5.60;99.90
2226;DHT22;1119;48.288;8.726;2024-03-02T03:52:03;5.60;99.90
2226;DHT22;1119;48.288;8.726;2024-03-02T03:54:31;5.50;99.90
2226;DHT22;1119;48.288;8.726;2024-03-02T03:56:58;5.50;99.90
2226;DHT22;1119;48.288;8.726;2024-03-02T03:59:25;5.50;99.90
2226;DHT22;1119;48.288;8.726;2024-03-02T04:01:53;5.50;99.90
2226;DHT22;1119;48.288;8.726;2024-03-02T04:04:21;5.50;99.90
2226;DHT22;1119;48.288;8.726;2024-03-02T04:06:48;5.60;99.90
2226;DHT22;1119;48.288;8.726;2024-03-02T04:09:18;5.50;99.90
2226;DHT22;1119;48.288;8.726;2024-03-02T04:11:46;5.60;99.90
2226;DHT22;1119;48.288;8.726;2024-03-02T04:14:13;5.60;99.90
2226;DHT22;1119;48.288;8.726;2024-03-02T04:16:40;5.60;99.90
2226;DHT22;1119;48.288;8.726;2024-03-02T04:19:08;5.50;99.90
2226;DHT22;1119;48.288;8.726;2024-03-02T04:21:36;5.50;99.90
2226;DHT22;1119;48.288;8.726;2024-03-02T04:24:04;5.50;99.90
2226;DHT22;1119;48.288;8.726;2024-03-02T04:26:32;5.50;99.90
2226;DHT22;1119;48.288;8.726;2024-03-02T04:28:59;5.50;99.90
2226;DHT22;1119;48.288;8.726;2024-03-02T04:31:27;5.50;99.90
2226;DHT22;1119;48.288;8.726;2024-03-02T04:33:55;5.50;99.90
2226;DHT22;1119;48.288;8.726;2024-03-02T04:36:22;5.50;99.90
2226;DHT22;1119;48.288;8.726;2024-03-02T04:38:50;5.40;99.90
2226;DHT22;1119;48.288;8.726;2024-03-02T04:41:18;5.40;99.90
2226;DHT22;1119;48.288;8.726;2024-03-02T04:43:45;5.40;99.90
2226;DHT22;1119;48.288;8.726;2024-03-02T04:46:13;5.40;99.90
2226;DHT22;1119;48.288;8.726;2024-03-02T04:48:41;5.40;99.90
2226;DHT22;1119;48.288;8.726;2024-03-02T04:51:08;5.40;99.90
2226;DHT22;1119;48.288;8.726;2024-03-02T04:53:36;5.40;99.90
2226;DHT22;1119;48.288;8.726;2024-03-02T04:56:06;5.40;99.90
2226;DHT22;1119;48.288;8.726;2024-03-02T04:59:06;5.40;99.90
2226;DHT22;1119;48.288;8.726;2024-03-02T05:01:33;5.40;99.90
2226;DHT22;1119;48.288;8.726;2024-03-02T05:04:01;5.40;99.90
2226;DHT22;1119;48.288;8.726;2024-03-02T05:06:31;5.40;99.90
2226;DHT22;1119;48.288;8.726;2024-03-02T05:08:58;5.40;99.90
2226;DHT22;1119;48.288;8.726;2024-03-02T05:11:27;5.40;99.90
2226;DHT22;1119;48.288;8.726;2024-03-02T05:14:12;5.40;99.90
2226;DHT22;1119;48.288;8.726;2024-03-02T05:16:39;5.40;99.90
2226;DHT22;1119;48.288;8.726;2024-03-02T05:19:07;5.30;99.90
2226;DHT22;1119;48.288;8.726;2024-03-02T05:21:34;5.30;99.90
2226;DHT22;1119;48.288;8.726;2024-03-02T05:24:02;5.20;99.90
2226;DHT22;1119;48.288;8.726;2024-03-02T05:26:30;5.10;99.90
2226;DHT22;1119;48.288;8.726;2024-03-02T05:28:58;5.10;99.90
2226;DHT22;1119;48.288;8.726;2024-03-02T05:31:25;5.00;99.90
2226;DHT22;1119;48.288;8.726;2024-03-02T05:33:52;5.00;99.90
2226;DHT22;1119;48.288;8.726;2024-03-02T05:36:20;5.00;99.90
2226;DHT22;1119;48.288;8.726;2024-03-02T05:38:47;5.00;99.90
2226;DHT22;1119;48.288;8.726;2024-03-02T05:41:14;5.00;99.90
2226;DHT22;1119;48.288;8.726;2024-03-02T05:43:43;4.90;99.90
2226;DHT22;1119;48.288;8.726;2024-03-02T05:46:10;4.90;99.90
2226;DHT22;1119;48.288;8.726;2024-03-02T05:48:37;4.90;99.90
2226;DHT22;1119;48.288;8.726;2024-03-02T05:51:05;4.90;99.90
2226;DHT22;1119;48.288;8.726;2024-03-02T05:53:32;4.90;99.90
2226;DHT22;1119;48.288;8.726;2024-03-02T05:55:59;4.80;99.90
2226;DHT22;1119;48.288;8.726;2024-03-02T05:58:27;4.80;99.90
2226;DHT22;1119;48.288;8.726;2024-03-02T06:01:10;4.80;99.90
2226;DHT22;1119;48.288;8.726;2024-03-02T06:03:37;4.80;99.90
2226;DHT22;1119;48.288;8.726;2024-03-02T06:06:04;4.80;99.90
2226;DHT22;1119;48.288;8.726;2024-03-02T06:08:32;4.80;99.90
2226;DHT22;1119;48.288;8.726;2024-03-02T06:10:59;4.70;99.90
2226;DHT22;1119;48.288;8.726;2024-03-02T06:13:26;4.70;99.90
2226;DHT22;1119;48.288;8.726;2024-03-02T06:15:54;4.70;99.90
2226;DHT22;1119;48.288;8.726;2024-03-02T06:18:22;4.70;99.90
2226;DHT22;1119;48.288;8.726;2024-03-02T06:20:49;4.70;99.90
2226;DHT22;1119;48.288;8.726;2024-03-02T06:23:17;4.70;99.90
2226;DHT22;1119;48.288;8.726;2024-03-02T06:25:44;4.70;99.90
2226;DHT22;1119;48.288;8.726;2024-03-02T06:28:11;4.70;99.90
2226;DHT22;1119;48.288;8.726;2024-03-02T06:30:41;4.80;99.90
2226;DHT22;1119;48.288;8.726;2024-03-02T06:33:08;4.80;99.90
2226;DHT22;1119;48.288;8.726;2024-03-02T06:35:37;4.80;99.90
2226;DHT22;1119;48.288;8.726;2024-03-02T06:38:04;4.80;99.90
2226;DHT22;1119;48.288;8.726;2024-03-02T06:40:32;4.90;99.90
2226;DHT22;1119;48.288;8.726;2024-03-02T06:42:59;5.00;99.90
2226;DHT22;1119;48.288;8.726;2024-03-02T06:45:27;5.00;99.90
2226;DHT22;1119;48.288;8.726;2024-03-02T06:47:56;5.00;99.90
2226;DHT22;1119;48.288;8.726;2024-03-02T06:50:23;5.10;99.90
2226;DHT22;1119;48.288;8.726;2024-03-02T06:52:52;5.10;99.90
2226;DHT22;1119;48.288;8.726;2024-03-02T06:55:19;5.20;99.90
2226;DHT22;1119;48.288;8.726;2024-03-02T06:57:46;5.10;99.90
2226;DHT22;1119;48.288;8.726;2024-03-02T07:00:14;5.10;99.90
2226;DHT22;1119;48.288;8.726;2024-03-02T07:02:43;5.10;99.90
2226;DHT22;1119;48.288;8.726;2024-03-02T07:05:11;5.10;99.90
2226;DHT22;1119;48.288;8.726;2024-03-02T07:07:38;5.10;99.90
2226;DHT22;1119;48.288;8.726;2024-03-02T07:10:08;5.10;99.90
2226;DHT22;1119;48.288;8.726;2024-03-02T07:12:36;5.20;99.90
2226;DHT22;1119;48.288;8.726;2024-03-02T07:15:09;5.40;99.90
2226;DHT22;1119;48.288;8.726;2024-03-02T07:18:04;6.10;99.90
2226;DHT22;1119;48.288;8.726;2024-03-02T07:20:32;7.20;99.90
2226;DHT22;1119;48.288;8.726;2024-03-02T07:23:02;8.30;99.90
2226;DHT22;1119;48.288;8.726;2024-03-02T07:34:52;11.80;93.60
2226;DHT22;1119;48.288;8.726;2024-03-02T07:52:51;15.90;74.60
2226;DHT22;1119;48.288;8.726;2024-03-02T07:55:23;16.90;70.30
2226;DHT22;1119;48.288;8.726;2024-03-02T07:58:03;17.10;66.80
2226;DHT22;1119;48.288;8.726;2024-03-02T08:01:12;16.10;67.20
2226;DHT22;1119;48.288;8.726;2024-03-02T08:03:48;14.50;70.10
2226;DHT22;1119;48.288;8.726;2024-03-02T08:06:17;13.50;73.60
2226;DHT22;1119;48.288;8.726;2024-03-02T08:09:03;12.40;76.60
2226;DHT22;1119;48.288;8.726;2024-03-02T08:11:55;11.90;79.20
2226;DHT22;1119;48.288;8.726;2024-03-02T08:14:25;11.00;82.40
2226;DHT22;1119;48.288;8.726;2024-03-02T08:16:54;10.70;85.60
2226;DHT22;1119;48.288;8.726;2024-03-02T08:19:25;10.10;87.50
2226;DHT22;1119;48.288;8.726;2024-03-02T08:21:55;9.90;90.20
2226;DHT22;1119;48.288;8.726;2024-03-02T08:24:28;9.50;91.00
2226;DHT22;1119;48.288;8.726;2024-03-02T08:27:21;9.30;92.30
2226;DHT22;1119;48.288;8.726;2024-03-02T08:29:49;8.80;93.70
2226;DHT22;1119;48.288;8.726;2024-03-02T08:32:19;8.60;94.80
2226;DHT22;1119;48.288;8.726;2024-03-02T08:34:50;8.60;95.70
2226;DHT22;1119;48.288;8.726;2024-03-02T08:37:28;8.40;96.60
2226;DHT22;1119;48.288;8.726;2024-03-02T08:39:59;8.50;97.30
2226;DHT22;1119;48.288;8.726;2024-03-02T08:42:30;8.50;97.80
2226;DHT22;1119;48.288;8.726;2024-03-02T08:45:01;8.30;98.10
2226;DHT22;1119;48.288;8.726;2024-03-02T08:47:31;8.50;98.60
2226;DHT22;1119;48.288;8.726;2024-03-02T08:50:02;8.60;98.20
2226;DHT22;1119;48.288;8.726;2024-03-02T08:52:44;8.40;98.10
2226;DHT22;1119;48.288;8.726;2024-03-02T08:55:37;8.60;98.80
2226;DHT22;1119;48.288;8.726;2024-03-02T08:58:06;9.90;96.60
2226;DHT22;1119;48.288;8.726;2024-03-02T09:01:04;10.90;93.80
2226;DHT22;1119;48.288;8.726;2024-03-02T09:03:49;11.90;91.00
2226;DHT22;1119;48.288;8.726;2024-03-02T09:06:18;12.60;89.40
2226;DHT22;1119;48.288;8.726;2024-03-02T09:08:48;13.20;86.80
2226;DHT22;1119;48.288;8.726;2024-03-02T09:11:20;14.20;85.20
2226;DHT22;1119;48.288;8.726;2024-03-02T09:13:51;14.70;78.80
2226;DHT22;1119;48.288;8.726;2024-03-02T09:17:32;15.10;76.20
2226;DHT22;1119;48.288;8.726;2024-03-02T09:20:57;15.50;72.20
2226;DHT22;1119;48.288;8.726;2024-03-02T09:27:33;15.30;70.80
2226;DHT22;1119;48.288;8.726;2024-03-02T09:34:10;15.00;70.60
2226;DHT22;1119;48.288;8.726;2024-03-02T09:55:16;14.30;72.70
2226;DHT22;1119;48.288;8.726;2024-03-02T10:44:34;14.60;65.10
2226;DHT22;1119;48.288;8.726;2024-03-02T10:48:51;14.60;64.30
2226;DHT22;1119;48.288;8.726;2024-03-02T10:56:40;14.40;63.40
2226;DHT22;1119;48.288;8.726;2024-03-02T11:33:44;15.00;60.90
2226;DHT22;1119;48.288;8.726;2024-03-02T11:37:47;15.30;58.60
2226;DHT22;1119;48.288;8.726;2024-03-02T11:41:01;15.10;59.10
2226;DHT22;1119;48.288;8.726;2024-03-02T11:57:37;14.30;60.10
2226;DHT22;1119;48.288;8.726;2024-03-02T12:00:05;14.30;60.60
2226;DHT22;1119;48.288;8.726;2024-03-02T12:02:43;14.30;59.80
2226;DHT22;1119;48.288;8.726;2024-03-02T12:05:15;14.40;60.50
2226;DHT22;1119;48.288;8.726;2024-03-02T12:07:43;14.40;58.80
2226;DHT22;1119;48.288;8.726;2024-03-02T12:10:10;14.30;59.80
2226;DHT22;1119;48.288;8.726;2024-03-02T12:12:39;14.60;59.90
2226;DHT22;1119;48.288;8.726;2024-03-02T12:15:07;14.90;59.50
2226;DHT22;1119;48.288;8.726;2024-03-02T12:17:35;15.10;59.40
2226;DHT22;1119;48.288;8.726;2024-03-02T12:20:04;15.20;59.30
2226;DHT22;1119;48.288;8.726;2024-03-02T12:22:32;15.40;58.90
2226;DHT22;1119;48.288;8.726;2024-03-02T12:25:00;15.50;58.20
2226;DHT22;1119;48.288;8.726;2024-03-02T12:27:29;15.50;57.40
2226;DHT22;1119;48.288;8.726;2024-03-02T12:29:57;15.50;56.80
2226;DHT22;1119;48.288;8.726;2024-03-02T12:32:25;15.60;56.50
2226;DHT22;1119;48.288;8.726;2024-03-02T12:34:53;15.60;57.10
2226;DHT22;1119;48.288;8.726;2024-03-02T12:37:20;15.70;56.40
2226;DHT22;1119;48.288;8.726;2024-03-02T12:39:47;15.60;56.60
2226;DHT22;1119;48.288;8.726;2024-03-02T12:42:14;15.60;57.40
2226;DHT22;1119;48.288;8.726;2024-03-02T12:44:42;15.60;56.30
2226;DHT22;1119;48.288;8.726;2024-03-02T12:47:10;15.50;56.20
2226;DHT22;1119;48.288;8.726;2024-03-02T12:49:40;15.50;56.50
2226;DHT22;1119;48.288;8.726;2024-03-02T12:52:07;15.60;57.00
2226;DHT22;1119;48.288;8.726;2024-03-02T12:54:35;15.80;57.00
2226;DHT22;1119;48.288;8.726;2024-03-02T12:57:02;15.90;57.00
2226;DHT22;1119;48.288;8.726;2024-03-02T12:59:30;15.80;56.20
2226;DHT22;1119;48.288;8.726;2024-03-02T13:01:57;15.70;56.20
2226;DHT22;1119;48.288;8.726;2024-03-02T13:04:26;15.60;56.40
2226;DHT22;1119;48.288;8.726;2024-03-02T13:06:55;15.50;57.30
2226;DHT22;1119;48.288;8.726;2024-03-02T13:09:23;15.50;56.50
2226;DHT22;1119;48.288;8.726;2024-03-02T13:11:51;15.50;56.70
2226;DHT22;1119;48.288;8.726;2024-03-02T13:14:21;15.50;56.70
2226;DHT22;1119;48.288;8.726;2024-03-02T13:16:50;15.50;56.70
2226;DHT22;1119;48.288;8.726;2024-03-02T13:19:18;15.40;57.60
2226;DHT22;1119;48.288;8.726;2024-03-02T13:21:47;15.20;58.20
2226;DHT22;1119;48.288;8.726;2024-03-02T13:24:16;15.20;58.10
2226;DHT22;1119;48.288;8.726;2024-03-02T13:26:43;15.10;58.70
2226;DHT22;1119;48.288;8.726;2024-03-02T13:29:10;15.00;57.90
2226;DHT22;1119;48.288;8.726;2024-03-02T13:31:38;14.90;58.20
2226;DHT22;1119;48.288;8.726;2024-03-02T13:34:05;15.00;58.40
2226;DHT22;1119;48.288;8.726;2024-03-02T13:36:33;15.00;58.20
2226;DHT22;1119;48.288;8.726;2024-03-02T13:39:01;15.00;58.90
2226;DHT22;1119;48.288;8.726;2024-03-02T13:41:30;14.90;58.00
2226;DHT22;1119;48.288;8.726;2024-03-02T13:43:58;14.90;58.40
2226;DHT22;1119;48.288;8.726;2024-03-02T13:46:26;14.80;58.70
2226;DHT22;1119;48.288;8.726;2024-03-02T13:48:54;14.90;59.80
2226;DHT22;1119;48.288;8.726;2024-03-02T13:51:24;14.80;59.40
2226;DHT22;1119;48.288;8.726;2024-03-02T13:53:53;14.80;58.90
2226;DHT22;1119;48.288;8.726;2024-03-02T13:56:21;14.70;58.30
2226;DHT22;1119;48.288;8.726;2024-03-02T13:58:49;14.80;57.90
2226;DHT22;1119;48.288;8.726;2024-03-02T14:01:16;14.70;58.80
2226;DHT22;1119;48.288;8.726;2024-03-02T14:03:44;14.60;57.90
2226;DHT22;1119;48.288;8.726;2024-03-02T14:06:12;14.60;57.50
2226;DHT22;1119;48.288;8.726;2024-03-02T14:08:40;14.50;56.40
2226;DHT22;1119;48.288;8.726;2024-03-02T14:11:10;14.40;56.10
2226;DHT22;1119;48.288;8.726;2024-03-02T14:13:43;14.30;56.50
2226;DHT22;1119;48.288;8.726;2024-03-02T14:16:15;14.20;56.30
2226;DHT22;1119;48.288;8.726;2024-03-02T14:18:42;14.20;55.10
2226;DHT22;1119;48.288;8.726;2024-03-02T14:21:09;14.30;55.60
2226;DHT22;1119;48.288;8.726;2024-03-02T14:23:37;14.20;55.90
2226;DHT22;1119;48.288;8.726;2024-03-02T14:26:04;14.10;56.30
2226;DHT22;1119;48.288;8.726;2024-03-02T14:28:31;14.10;56.00
2226;DHT22;1119;48.288;8.726;2024-03-02T14:31:00;14.10;55.30
2226;DHT22;1119;48.288;8.726;2024-03-02T14:33:28;14.00;55.10
2226;DHT22;1119;48.288;8.726;2024-03-02T14:35:56;13.90;55.40
2226;DHT22;1119;48.288;8.726;2024-03-02T14:38:23;13.90;55.10
2226;DHT22;1119;48.288;8.726;2024-03-02T14:40:50;13.80;56.10
2226;DHT22;1119;48.288;8.726;2024-03-02T14:43:18;13.70;55.60
2226;DHT22;1119;48.288;8.726;2024-03-02T14:45:45;13.60;52.20
2226;DHT22;1119;48.288;8.726;2024-03-02T14:48:14;13.50;52.20
2226;DHT22;1119;48.288;8.726;2024-03-02T14:50:42;13.50;53.10
2226;DHT22;1119;48.288;8.726;2024-03-02T14:53:09;13.50;54.90
2226;DHT22;1119;48.288;8.726;2024-03-02T14:55:36;13.40;55.20
2226;DHT22;1119;48.288;8.726;2024-03-02T14:58:04;13.50;55.90
2226;DHT22;1119;48.288;8.726;2024-03-02T15:00:31;13.40;55.60
2226;DHT22;1119;48.288;8.726;2024-03-02T15:02:58;13.40;55.80
2226;DHT22;1119;48.288;8.726;2024-03-02T15:05:27;13.40;56.30
2226;DHT22;1119;48.288;8.726;2024-03-02T15:07:54;13.40;56.40
2226;DHT22;1119;48.288;8.726;2024-03-02T15:10:24;13.40;56.80
2226;DHT22;1119;48.288;8.726;2024-03-02T15:12:53;13.40;57.00
2226;DHT22;1119;48.288;8.726;2024-03-02T15:15:20;13.30;56.70
2226;DHT22;1119;48.288;8.726;2024-03-02T15:17:48;13.30;57.30
2226;DHT22;1119;48.288;8.726;2024-03-02T15:20:15;13.20;56.70
2226;DHT22;1119;48.288;8.726;2024-03-02T15:22:44;13.10;55.90
2226;DHT22;1119;48.288;8.726;2024-03-02T15:25:11;13.00;56.80
2226;DHT22;1119;48.288;8.726;2024-03-02T15:27:38;13.00;56.10
2226;DHT22;1119;48.288;8.726;2024-03-02T15:30:07;13.10;55.90
2226;DHT22;1119;48.288;8.726;2024-03-02T15:32:35;13.00;55.80
2226;DHT22;1119;48.288;8.726;2024-03-02T15:35:04;13.00;55.50
2226;DHT22;1119;48.288;8.726;2024-03-02T15:37:32;12.90;55.00
2226;DHT22;1119;48.288;8.726;2024-03-02T15:40:00;12.90;55.40
2226;DHT22;1119;48.288;8.726;2024-03-02T15:42:31;12.90;55.50
2226;DHT22;1119;48.288;8.726;2024-03-02T15:44:59;12.80;55.70
2226;DHT22;1119;48.288;8.726;2024-03-02T15:47:27;12.80;55.80
2226;DHT22;1119;48.288;8.726;2024-03-02T15:49:54;12.80;56.30
2226;DHT22;1119;48.288;8.726;2024-03-02T15:52:21;12.80;56.30
2226;DHT22;1119;48.288;8.726;2024-03-02T15:54:49;12.60;56.20
2226;DHT22;1119;48.288;8.726;2024-03-02T15:57:18;12.60;56.50
2226;DHT22;1119;48.288;8.726;2024-03-02T15:59:46;12.50;56.60
2226;DHT22;1119;48.288;8.726;2024-03-02T16:02:13;12.50;56.70
2226;DHT22;1119;48.288;8.726;2024-03-02T16:04:41;12.50;57.40
2226;DHT22;1119;48.288;8.726;2024-03-02T16:07:08;12.40;57.60
2226;DHT22;1119;48.288;8.726;2024-03-02T16:09:35;12.40;57.90
2226;DHT22;1119;48.288;8.726;2024-03-02T16:12:03;12.40;58.30
2226;DHT22;1119;48.288;8.726;2024-03-02T16:14:33;12.30;58.50
2226;DHT22;1119;48.288;8.726;2024-03-02T16:17:01;12.30;58.90
2226;DHT22;1119;48.288;8.726;2024-03-02T16:19:28;12.30;59.50
2226;DHT22;1119;48.288;8.726;2024-03-02T16:21:55;12.20;59.60
2226;DHT22;1119;48.288;8.726;2024-03-02T16:24:23;12.20;60.10
2226;DHT22;1119;48.288;8.726;2024-03-02T16:26:50;12.20;60.40
2226;DHT22;1119;48.288;8.726;2024-03-02T16:29:17;12.20;60.80
2226;DHT22;1119;48.288;8.726;2024-03-02T16:31:46;12.10;61.00
2226;DHT22;1119;48.288;8.726;2024-03-02T16:34:13;12.10;60.80
2226;DHT22;1119;48.288;8.726;2024-03-02T16:36:40;12.10;60.00
2226;DHT22;1119;48.288;8.726;2024-03-02T16:39:08;12.00;59.60
2226;DHT22;1119;48.288;8.726;2024-03-02T16:41:36;12.00;59.90
2226;DHT22;1119;48.288;8.726;2024-03-02T16:44:08;11.90;59.90
2226;DHT22;1119;48.288;8.726;2024-03-02T16:46:35;11.80;60.30
2226;DHT22;1119;48.288;8.726;2024-03-02T16:49:05;11.80;61.10
2226;DHT22;1119;48.288;8.726;2024-03-02T16:51:38;11.70;62.50
2226;DHT22;1119;48.288;8.726;2024-03-02T16:54:06;11.60;63.60
2226;DHT22;1119;48.288;8.726;2024-03-02T16:56:38;11.60;64.90
2226;DHT22;1119;48.288;8.726;2024-03-02T16:59:06;11.50;65.90
2226;DHT22;1119;48.288;8.726;2024-03-02T17:01:34;11.50;67.50
2226;DHT22;1119;48.288;8.726;2024-03-02T17:04:01;11.50;68.60
2226;DHT22;1119;48.288;8.726;2024-03-02T17:06:33;11.50;69.00
2226;DHT22;1119;48.288;8.726;2024-03-02T17:09:00;11.50;68.50
2226;DHT22;1119;48.288;8.726;2024-03-02T17:11:28;11.50;68.40
2226;DHT22;1119;48.288;8.726;2024-03-02T17:13:56;11.50;68.10
2226;DHT22;1119;48.288;8.726;2024-03-02T17:16:24;11.60;67.70
2226;DHT22;1119;48.288;8.726;2024-03-02T17:18:52;11.50;67.30
2226;DHT22;1119;48.288;8.726;2024-03-02T17:21:19;11.40;67.50
2226;DHT22;1119;48.288;8.726;2024-03-02T17:23:48;11.30;68.60
2226;DHT22;1119;48.288;8.726;2024-03-02T17:26:16;11.30;70.20
2226;DHT22;1119;48.288;8.726;2024-03-02T17:28:43;11.20;72.00
2226;DHT22;1119;48.288;8.726;2024-03-02T17:31:11;11.20;72.80
2226;DHT22;1119;48.288;8.726;2024-03-02T17:33:38;11.30;73.50
2226;DHT22;1119;48.288;8.726;2024-03-02T17:36:05;11.40;74.60
2226;DHT22;1119;48.288;8.726;2024-03-02T17:38:33;11.40;74.20
2226;DHT22;1119;48.288;8.726;2024-03-02T17:41:02;11.30;74.60
2226;DHT22;1119;48.288;8.726;2024-03-02T17:43:30;11.40;74.80
2226;DHT22;1119;48.288;8.726;2024-03-02T17:45:58;11.40;75.00
2226;DHT22;1119;48.288;8.726;2024-03-02T17:48:25;11.40;75.60
2226;DHT22;1119;48.288;8.726;2024-03-02T17:50:52;11.50;75.40
2226;DHT22;1119;48.288;8.726;2024-03-02T17:53:20;11.40;75.80
2226;DHT22;1119;48.288;8.726;2024-03-02T17:55:48;11.20;75.80
2226;DHT22;1119;48.288;8.726;2024-03-02T17:58:16;11.20;76.20
2226;DHT22;1119;48.288;8.726;2024-03-02T18:00:44;11.10;76.90
2226;DHT22;1119;48.288;8.726;2024-03-02T18:03:12;11.10;77.90
2226;DHT22;1119;48.288;8.726;2024-03-02T18:05:39;11.00;78.80
2226;DHT22;1119;48.288;8.726;2024-03-02T18:08:07;10.90;79.60
2226;DHT22;1119;48.288;8.726;2024-03-02T18:10:34;10.80;80.10
2226;DHT22;1119;48.288;8.726;2024-03-02T18:13:01;10.80;80.90
2226;DHT22;1119;48.288;8.726;2024-03-02T18:15:30;10.70;80.90
2226;DHT22;1119;48.288;8.726;2024-03-02T18:17:57;10.70;82.00
2226;DHT22;1119;48.288;8.726;2024-03-02T18:20:25;10.60;82.80
2226;DHT22;1119;48.288;8.726;2024-03-02T18:22:52;10.60;83.80
2226;DHT22;1119;48.288;8.726;2024-03-02T18:25:22;10.60;84.60
2226;DHT22;1119;48.288;8.726;2024-03-02T18:27:49;10.60;85.70
2226;DHT22;1119;48.288;8.726;2024-03-02T18:30:16;10.50;86.70
2226;DHT22;1119;48.288;8.726;2024-03-02T18:32:46;10.60;87.60
2226;DHT22;1119;48.288;8.726;2024-03-02T18:35:13;10.60;88.20
2226;DHT22;1119;48.288;8.726;2024-03-02T18:37:41;10.60;88.90
2226;DHT22;1119;48.288;8.726;2024-03-02T18:40:11;10.60;89.40
2226;DHT22;1119;48.288;8.726;2024-03-02T18:42:39;10.70;90.00
2226;DHT22;1119;48.288;8.726;2024-03-02T18:45:08;10.70;90.10
2226;DHT22;1119;48.288;8.726;2024-03-02T18:47:35;10.70;90.30
2226;DHT22;1119;48.288;8.726;2024-03-02T18:50:06;10.70;90.30
2226;DHT22;1119;48.288;8.726;2024-03-02T18:52:35;10.70;90.30
2226;DHT22;1119;48.288;8.726;2024-03-02T18:55:03;10.70;90.20
2226;DHT22;1119;48.288;8.726;2024-03-02T18:57:32;10.80;90.30
2226;DHT22;1119;48.288;8.726;2024-03-02T19:00:00;10.80;90.00